Date,TemperatureHighF,TemperatureAvgF,TemperatureLowF,DewpointHighF,DewpointAvgF,DewpointLowF,HumidityHigh,HumidityAvg,HumidityLow,PressureMaxIn,PressureMinIn,WindSpeedMaxMPH,WindSpeedAvgMPH,GustSpeedMaxMPH,PrecipitationSumIn
2013-10-1,81.6,72.5,65.5,68.0,65.6,64.0,93,80,61,30.11,30.03,8,2,11,0.00
2013-10-2,81.6,71.5,63.0,69.0,65.6,62.0,97,83,60,30.11,30.05,9,2,11,0.00
2013-10-3,84.4,74.3,65.6,74.0,70.0,64.0,97,87,69,30.11,30.02,7,2,11,0.00
2013-10-4,87.1,77.1,69.3,77.0,72.4,69.0,100,87,63,30.11,30.02,7,1,11,0.00
2013-10-5,85.5,76.1,68.9,75.0,71.9,69.0,100,88,66,30.09,30.00,11,2,11,0.00
2013-10-6,86.1,77.4,69.4,77.0,73.5,69.0,100,88,70,30.01,29.87,9,2,13,0.01
2013-10-7,87.7,77.1,70.8,76.0,73.2,70.0,99,88,63,29.87,29.75,7,2,12,0.00
2013-10-8,79.2,72.5,65.5,74.0,70.5,64.0,97,93,84,30.03,29.79,9,4,18,0.03
2013-10-9,75.0,64.4,60.4,67.0,62.2,60.0,98,93,73,30.11,30.01,9,4,14,0.00
2013-10-10,83.6,69.8,60.0,65.0,62.0,59.0,99,79,46,30.09,29.98,7,2,10,0.00
2013-10-11,83.4,71.0,62.0,66.0,62.3,59.0,98,77,46,30.05,29.94,10,2,11,0.01
2013-10-12,85.2,71.6,60.7,64.0,61.4,58.0,97,74,42,30.04,29.97,9,2,12,0.00
2013-10-13,86.4,71.5,59.4,69.0,63.5,59.0,98,79,45,30.10,30.02,8,2,15,0.00
2013-10-14,76.6,70.0,64.6,69.0,66.6,64.0,96,89,75,30.09,30.01,9,4,14,0.00
2013-10-15,70.7,68.7,67.2,68.0,66.5,65.0,97,92,88,30.03,29.96,9,5,18,0.00
2013-10-16,83.8,72.1,64.3,72.0,67.2,63.0,97,85,62,30.00,29.92,6,2,9,0.00
2013-10-17,87.3,74.6,64.3,73.0,68.1,64.0,100,83,53,29.99,29.89,7,1,10,0.00
2013-10-18,88.3,77.2,66.7,74.0,70.1,66.0,99,81,53,29.99,29.89,8,2,13,0.00
2013-10-19,86.2,76.9,69.5,76.0,72.1,69.0,99,86,65,29.95,29.86,9,2,9,0.27
2013-10-20,78.9,71.4,65.9,70.0,64.7,61.0,95,80,60,30.01,29.90,7,3,12,0.00
2013-10-21,81.1,72.6,66.6,75.0,69.6,65.0,96,90,79,30.04,29.95,9,3,12,0.00
2013-10-22,79.3,72.0,67.9,75.0,70.6,67.0,99,95,85,29.98,29.82,9,3,10,0.14
2013-10-23,75.9,66.9,59.8,68.0,56.7,47.0,100,73,41,30.05,29.82,10,4,18,0.01
2013-10-24,69.9,58.6,49.6,53.0,46.6,42.0,96,67,40,30.20,30.05,5,2,9,0.00
2013-10-25,73.3,59.8,49.8,52.0,49.2,46.0,96,71,41,30.28,30.17,11,3,13,0.00
2013-10-26,72.5,58.2,47.7,57.0,50.3,44.0,96,77,49,30.27,30.14,6,3,9,0.00
2013-10-27,75.0,59.0,45.4,54.0,48.6,43.0,99,74,36,30.18,30.09,6,1,9,0.00
2013-10-28,79.4,63.3,50.4,61.0,55.5,49.0,98,78,48,30.23,30.12,6,1,10,0.00
2013-10-29,78.1,65.9,57.1,66.0,59.5,55.0,97,82,51,30.29,30.21,9,2,13,0.00
2013-10-30,79.6,67.4,59.0,68.0,62.4,58.0,98,85,62,30.28,30.17,11,2,11,0.00
2013-10-31,84.1,72.8,62.6,71.0,66.2,61.0,98,81,54,30.17,29.98,10,3,16,0.00